createdAt,value
2018-05-14T00:01:32.763Z,33.23
2018-05-14T00:04:00.387Z,37.40
2018-05-14T00:06:29.249Z,36.30
2018-05-14T00:08:56.972Z,32.10
2018-05-14T00:11:24.616Z,34.73
2018-05-14T00:13:52.241Z,35.27
2018-05-14T00:16:20.914Z,36.97
2018-05-14T00:18:48.514Z,37.27
2018-05-14T00:21:16.177Z,37.40
2018-05-14T00:23:44.022Z,36.67
2018-05-14T00:26:12.372Z,33.50
2018-05-14T00:28:40.133Z,33.80
2018-05-14T00:31:07.731Z,42.33
2018-05-14T00:33:35.356Z,39.47
2018-05-14T00:36:06.257Z,35.80
2018-05-14T00:38:33.942Z,35.33
2018-05-14T00:41:01.688Z,37.87
2018-05-14T00:43:29.410Z,37.57
2018-05-14T00:45:57.804Z,36.30
2018-05-14T00:48:26.406Z,41.30
2018-05-14T00:50:54.042Z,40.43
2018-05-14T00:53:22.693Z,40.73
2018-05-14T00:55:50.367Z,39.17
2018-05-14T00:58:18.131Z,43.20
2018-05-14T01:00:46.605Z,42.33
2018-05-14T01:03:14.275Z,39.70
2018-05-14T01:05:41.883Z,36.20
2018-05-14T01:08:09.537Z,37.40
2018-05-14T01:10:37.143Z,37.90
2018-05-14T01:13:04.767Z,40.60
2018-05-14T01:15:32.372Z,42.40
2018-05-14T01:18:00.049Z,41.43
2018-05-14T01:20:28.532Z,43.37
2018-05-14T01:22:56.902Z,40.77
2018-05-14T01:25:25.615Z,43.17
2018-05-14T01:27:54.193Z,48.07
2018-05-14T01:30:22.743Z,44.90
2018-05-14T01:32:50.346Z,49.90
2018-05-14T01:35:17.972Z,50.77
2018-05-14T01:37:45.565Z,49.77
2018-05-14T01:40:14.956Z,49.20
2018-05-14T01:42:43.376Z,48.20
2018-05-14T01:45:10.969Z,56.93
2018-05-14T01:47:38.660Z,46.80
2018-05-14T01:50:07.193Z,51.37
2018-05-14T01:52:35.192Z,47.70
2018-05-14T01:55:02.841Z,49.90
2018-05-14T01:57:30.466Z,55.90
2018-05-14T01:59:58.105Z,52.33
2018-05-14T02:02:25.903Z,52.80
2018-05-14T02:04:53.844Z,48.00
2018-05-14T02:07:22.032Z,46.50
2018-05-14T02:09:50.922Z,48.83
2018-05-14T02:12:18.519Z,46.07
2018-05-14T02:14:46.165Z,49.93
2018-05-14T02:17:13.761Z,46.60
2018-05-14T02:19:41.449Z,48.73
2018-05-14T02:22:09.083Z,43.83
2018-05-14T02:24:36.650Z,50.37
2018-05-14T02:27:07.030Z,47.97
2018-05-14T02:29:34.681Z,46.27
2018-05-14T02:32:02.407Z,47.23
2018-05-14T02:34:30.956Z,45.43
2018-05-14T02:36:58.611Z,49.00
2018-05-14T02:39:26.208Z,48.30
2018-05-14T02:41:53.850Z,46.70
2018-05-14T02:44:21.471Z,48.90
2018-05-14T02:46:49.564Z,48.13
2018-05-14T02:49:17.149Z,55.63
2018-05-14T02:51:44.876Z,51.13
2018-05-14T02:54:13.252Z,47.57
2018-05-14T02:56:41.794Z,49.23
2018-05-14T02:59:10.277Z,47.10
2018-05-14T03:01:38.830Z,51.73
2018-05-14T03:04:07.337Z,54.60
2018-05-14T03:06:35.900Z,48.00
2018-05-14T03:09:06.100Z,51.80
2018-05-14T03:11:33.787Z,48.83
2018-05-14T03:14:02.224Z,47.10
2018-05-14T03:16:30.856Z,49.50
2018-05-14T03:18:59.270Z,44.10
2018-05-14T03:21:26.913Z,47.20
2018-05-14T03:23:55.294Z,49.90
2018-05-14T03:26:23.854Z,46.17
2018-05-14T03:28:51.444Z,47.97
2018-05-14T03:31:20.189Z,47.13
2018-05-14T03:33:47.839Z,41.83
2018-05-14T03:36:15.432Z,44.47
2018-05-14T03:38:43.033Z,42.80
2018-05-14T03:41:10.626Z,43.97
2018-05-14T03:43:38.278Z,45.60
2018-05-14T03:46:06.228Z,44.43
2018-05-14T03:48:33.829Z,55.50
2018-05-14T03:51:01.567Z,43.33
2018-05-14T03:53:29.141Z,48.00
2018-05-14T03:55:58.309Z,48.80
2018-05-14T03:58:37.593Z,45.93
2018-05-14T04:01:15.566Z,40.33
2018-05-14T04:03:54.943Z,41.50
2018-05-14T04:06:32.048Z,40.83
2018-05-14T04:08:59.672Z,40.50
2018-05-14T04:11:28.379Z,39.30
2018-05-14T04:13:57.536Z,38.10
2018-05-14T04:16:28.773Z,41.83
2018-05-14T04:18:57.092Z,38.00
2018-05-14T04:21:25.243Z,40.70
2018-05-14T04:23:53.987Z,41.37
2018-05-14T04:26:21.678Z,45.47
2018-05-14T04:28:49.665Z,40.50
2018-05-14T04:31:17.319Z,38.80
2018-05-14T04:33:45.243Z,41.17
2018-05-14T04:36:12.834Z,37.90
2018-05-14T04:38:40.577Z,40.40
2018-05-14T04:41:08.231Z,43.97
2018-05-14T04:43:35.850Z,41.13
2018-05-14T04:46:03.488Z,37.17
2018-05-14T04:48:31.090Z,39.57
2018-05-14T04:50:58.790Z,38.77
2018-05-14T04:53:26.423Z,38.87
2018-05-14T04:55:54.079Z,42.83
2018-05-14T04:58:21.765Z,44.67
2018-05-14T05:00:49.791Z,58.13
2018-05-14T05:03:17.503Z,43.80
2018-05-14T05:05:47.009Z,39.57
2018-05-14T05:08:14.652Z,34.27
2018-05-14T05:10:42.294Z,37.07
2018-05-14T05:13:09.968Z,36.00
2018-05-14T05:15:38.524Z,34.73
2018-05-14T05:18:06.459Z,36.60
2018-05-14T05:20:35.171Z,37.73
2018-05-14T05:23:02.897Z,32.57
2018-05-14T05:25:30.597Z,48.60
2018-05-14T05:27:58.284Z,38.30
2018-05-14T05:30:26.651Z,42.40
2018-05-14T05:32:55.093Z,37.07
2018-05-14T05:35:22.978Z,41.10
2018-05-14T05:37:50.679Z,33.63
2018-05-14T05:40:19.086Z,39.67
2018-05-14T05:42:47.679Z,35.17
2018-05-14T05:45:16.503Z,37.50
2018-05-14T05:47:44.522Z,35.10
2018-05-14T05:50:12.265Z,39.67
2018-05-14T05:52:40.006Z,43.40
2018-05-14T05:55:08.589Z,34.23
2018-05-14T05:57:36.652Z,34.93
2018-05-14T06:00:04.714Z,33.33
2018-05-14T06:02:32.530Z,34.40
2018-05-14T06:05:01.989Z,30.50
2018-05-14T06:07:29.607Z,37.70
2018-05-14T06:10:00.289Z,37.57
2018-05-14T06:12:27.959Z,34.03
2018-05-14T06:14:55.582Z,33.53
2018-05-14T06:17:23.313Z,32.03
2018-05-14T06:19:51.713Z,33.30
2018-05-14T06:22:19.498Z,30.63
2018-05-14T06:24:47.181Z,33.80
2018-05-14T06:27:16.054Z,31.17
2018-05-14T06:29:43.814Z,34.03
2018-05-14T06:32:11.568Z,31.80
2018-05-14T06:34:39.209Z,31.37
2018-05-14T06:37:07.004Z,30.20
2018-05-14T06:39:35.600Z,26.50
2018-05-14T06:42:04.332Z,27.80
2018-05-14T06:44:32.059Z,29.93
2018-05-14T06:47:05.811Z,39.10
2018-05-14T06:49:33.622Z,25.83
2018-05-14T06:52:05.177Z,24.77
2018-05-14T06:54:32.812Z,24.73
2018-05-14T06:57:01.482Z,27.13
2018-05-14T06:59:29.242Z,29.60
2018-05-14T07:02:00.072Z,28.83
2018-05-14T07:04:28.696Z,27.30
2018-05-14T07:06:56.511Z,21.37
2018-05-14T07:09:24.927Z,26.13
2018-05-14T07:11:52.651Z,30.77
2018-05-14T07:14:22.030Z,26.07
2018-05-14T07:16:49.699Z,26.27
2018-05-14T07:19:17.538Z,28.27
2018-05-14T07:21:45.283Z,24.73
2018-05-14T07:24:12.899Z,23.97
2018-05-14T07:26:45.598Z,24.90
2018-05-14T07:29:14.423Z,22.90
2018-05-14T07:31:42.057Z,23.03
2018-05-14T07:34:09.932Z,25.13
2018-05-14T07:36:38.503Z,26.60
2018-05-14T07:39:09.458Z,26.00
2018-05-14T07:41:37.221Z,24.57
2018-05-14T07:44:05.701Z,23.43
2018-05-14T07:46:33.455Z,24.47
2018-05-14T07:49:01.385Z,25.13
2018-05-14T07:51:31.164Z,27.23
2018-05-14T07:53:59.981Z,26.20
2018-05-14T07:56:27.620Z,27.70
2018-05-14T07:58:55.535Z,24.80
2018-05-14T08:01:24.015Z,28.47
2018-05-14T08:03:52.647Z,29.57
2018-05-14T08:06:20.372Z,31.23
2018-05-14T08:08:48.117Z,26.70
2018-05-14T08:11:21.143Z,30.07
2018-05-14T08:13:49.742Z,29.83
2018-05-14T08:16:21.484Z,30.83
2018-05-14T08:18:49.142Z,27.90
2018-05-14T08:21:16.806Z,26.73
2018-05-14T08:23:44.800Z,27.70
2018-05-14T08:26:13.440Z,28.17
2018-05-14T08:28:41.866Z,32.00
2018-05-14T08:31:09.596Z,31.40
2018-05-14T08:33:37.375Z,28.10
2018-05-14T08:36:05.948Z,26.43
2018-05-14T08:38:33.612Z,28.87
2018-05-14T08:41:01.410Z,29.10
2018-05-14T08:43:30.089Z,27.53
2018-05-14T08:45:57.858Z,26.20
2018-05-14T08:48:25.585Z,31.47
2018-05-14T08:50:53.356Z,27.37
2018-05-14T08:53:21.379Z,27.33
2018-05-14T08:55:49.033Z,25.13
2018-05-14T08:58:17.724Z,26.00
2018-05-14T09:00:45.572Z,24.67
2018-05-14T09:03:14.346Z,27.43
2018-05-14T09:05:42.213Z,23.80
2018-05-14T09:08:10.040Z,25.17
2018-05-14T09:10:38.481Z,25.20
2018-05-14T09:13:06.303Z,25.83
2018-05-14T09:15:34.162Z,29.07
2018-05-14T09:18:01.808Z,25.27
2018-05-14T09:20:30.548Z,30.33
2018-05-14T09:23:00.232Z,36.30
2018-05-14T09:25:28.171Z,29.70
2018-05-14T09:27:55.954Z,27.40
2018-05-14T09:30:23.845Z,28.73
2018-05-14T09:32:51.453Z,26.90
2018-05-14T09:35:19.350Z,27.70
2018-05-14T09:37:46.977Z,31.80
2018-05-14T09:40:15.008Z,34.23
2018-05-14T09:42:42.957Z,28.47
2018-05-14T09:45:10.671Z,31.80
2018-05-14T09:47:38.351Z,30.37
2018-05-14T09:50:06.378Z,33.13
2018-05-14T09:52:34.081Z,30.70
2018-05-14T09:55:02.740Z,33.17
2018-05-14T09:57:30.534Z,30.93
2018-05-14T09:59:58.414Z,28.13
2018-05-14T10:02:27.012Z,30.80
2018-05-14T10:04:54.781Z,31.87
2018-05-14T10:07:22.587Z,29.90
2018-05-14T10:09:50.276Z,27.93
2018-05-14T10:12:19.167Z,25.43
2018-05-14T10:14:47.473Z,27.17
2018-05-14T10:17:15.387Z,33.27
2018-05-14T10:19:43.403Z,28.47
2018-05-14T10:22:13.845Z,25.83
2018-05-14T10:24:41.573Z,31.10
2018-05-14T10:27:09.537Z,27.50
2018-05-14T10:29:37.263Z,32.63
2018-05-14T10:32:07.316Z,26.40
2018-05-14T10:34:36.335Z,27.80
2018-05-14T10:37:05.427Z,27.87
2018-05-14T10:39:34.433Z,31.03
2018-05-14T10:42:02.492Z,26.03
2018-05-14T10:44:30.742Z,23.10
2018-05-14T10:46:59.619Z,26.77
2018-05-14T10:49:29.370Z,24.70
2018-05-14T10:51:57.942Z,26.13
2018-05-14T10:54:26.699Z,29.20
2018-05-14T10:56:54.475Z,27.83
2018-05-14T10:59:23.118Z,29.57
2018-05-14T11:01:51.815Z,27.50
2018-05-14T11:04:20.671Z,27.47
2018-05-14T11:06:49.717Z,30.93
2018-05-14T11:09:17.602Z,29.13
2018-05-14T11:11:46.230Z,25.20
2018-05-14T11:14:14.247Z,25.40
2018-05-14T11:16:42.845Z,25.17
2018-05-14T11:19:10.621Z,36.90
2018-05-14T11:21:38.548Z,33.43
2018-05-14T11:24:09.333Z,33.23
2018-05-14T11:26:36.949Z,36.70
2018-05-14T11:29:06.688Z,36.63
2018-05-14T11:31:38.435Z,34.10
2018-05-14T11:34:06.513Z,29.73
2018-05-14T11:36:36.414Z,37.10
2018-05-14T11:39:05.127Z,34.53
2018-05-14T11:41:35.232Z,33.57
2018-05-14T11:44:04.014Z,39.47
2018-05-14T11:46:32.017Z,32.40
2018-05-14T11:48:59.695Z,32.97
2018-05-14T11:51:27.372Z,34.77
2018-05-14T11:53:56.113Z,38.80
2018-05-14T11:56:23.956Z,35.23
2018-05-14T11:58:52.476Z,32.93
2018-05-14T12:01:21.248Z,38.70
2018-05-14T12:03:50.681Z,35.07
2018-05-14T12:06:19.582Z,36.47
2018-05-14T12:08:48.488Z,40.93
2018-05-14T12:11:16.542Z,36.33
2018-05-14T12:13:44.248Z,35.93
2018-05-14T12:16:11.996Z,53.30
2018-05-14T12:18:40.746Z,39.47
2018-05-14T12:21:09.275Z,40.30
2018-05-14T12:23:36.868Z,38.47
2018-05-14T12:26:04.557Z,39.67
2018-05-14T12:28:32.380Z,34.60
2018-05-14T12:31:00.056Z,36.43
2018-05-14T12:33:28.714Z,37.50
2018-05-14T12:35:56.363Z,45.13
2018-05-14T12:38:24.409Z,44.20
2018-05-14T12:40:53.148Z,36.53
2018-05-14T12:43:21.837Z,35.33
2018-05-14T12:45:50.674Z,30.27
2018-05-14T12:48:19.383Z,34.90
2018-05-14T12:50:47.091Z,33.60
2018-05-14T12:53:14.765Z,43.57
2018-05-14T12:55:43.535Z,37.07
2018-05-14T12:58:11.931Z,33.90
2018-05-14T13:00:40.363Z,38.70
2018-05-14T13:03:09.355Z,37.77
2018-05-14T13:05:37.546Z,38.40
2018-05-14T13:08:08.435Z,38.63
2018-05-14T13:10:36.143Z,33.13
2018-05-14T13:13:04.653Z,47.43
2018-05-14T13:15:33.106Z,43.87
2018-05-14T13:18:00.874Z,45.60
2018-05-14T13:20:28.632Z,40.60
2018-05-14T13:22:57.289Z,45.97
2018-05-14T13:25:25.183Z,46.70
2018-05-14T13:27:52.850Z,42.60
2018-05-14T13:30:20.725Z,42.13
2018-05-14T13:32:48.580Z,39.97
2018-05-14T13:35:16.886Z,39.20
2018-05-14T13:37:45.888Z,49.33
2018-05-14T13:40:14.400Z,44.13
2018-05-14T13:42:42.311Z,45.23
2018-05-14T13:45:10.027Z,47.47
2018-05-14T13:47:37.990Z,41.57
2018-05-14T13:50:09.619Z,40.53
2018-05-14T13:52:37.563Z,44.73
2018-05-14T13:55:05.242Z,51.20
2018-05-14T13:57:33.811Z,42.07
2018-05-14T14:00:01.591Z,35.80
2018-05-14T14:02:31.077Z,36.07
2018-05-14T14:04:59.633Z,40.20
2018-05-14T14:07:27.572Z,39.13
2018-05-14T14:09:55.443Z,33.13
2018-05-14T14:12:23.361Z,39.53
2018-05-14T14:14:51.444Z,32.93
2018-05-14T14:17:19.523Z,31.00
2018-05-14T14:19:49.355Z,22.43
2018-05-14T14:22:17.176Z,21.30
2018-05-14T14:24:45.988Z,23.20
2018-05-14T14:27:16.286Z,20.30
2018-05-14T14:29:47.299Z,24.30
2018-05-14T14:32:18.215Z,22.60
2018-05-14T14:34:48.113Z,18.90
2018-05-14T14:37:16.315Z,16.83
2018-05-14T14:39:44.919Z,15.97
2018-05-14T14:42:13.722Z,17.63
2018-05-14T14:44:41.962Z,21.77
2018-05-14T14:47:11.603Z,18.03
2018-05-14T14:49:40.804Z,12.60
2018-05-14T14:52:10.666Z,14.20
2018-05-14T14:54:39.813Z,15.50
2018-05-14T14:57:09.146Z,19.33
2018-05-14T14:59:37.734Z,17.30
2018-05-14T15:02:10.758Z,14.33
2018-05-14T15:04:40.544Z,16.67
2018-05-14T15:07:09.159Z,14.10
2018-05-14T15:09:40.686Z,15.17
2018-05-14T15:12:09.810Z,10.67
2018-05-14T15:14:38.778Z,14.17
2018-05-14T15:17:08.064Z,18.13
2018-05-14T15:19:36.631Z,13.17
2018-05-14T15:22:05.326Z,12.97
2018-05-14T15:24:34.953Z,11.33
2018-05-14T15:27:04.844Z,10.07
2018-05-14T15:29:33.166Z,10.90
2018-05-14T15:32:01.830Z,9.50
2018-05-14T15:34:31.331Z,9.20
2018-05-14T15:36:59.322Z,8.90
2018-05-14T15:39:28.379Z,9.07
2018-05-14T15:41:56.901Z,6.83
2018-05-14T15:44:24.749Z,9.53
2018-05-14T15:46:54.035Z,8.63
2018-05-14T15:49:22.013Z,9.70
2018-05-14T15:51:49.856Z,10.17
2018-05-14T15:54:18.225Z,10.40
2018-05-14T15:56:50.113Z,8.57
2018-05-14T15:59:21.117Z,6.70
2018-05-14T16:01:49.243Z,8.10
2018-05-14T16:04:17.954Z,8.00
2018-05-14T16:06:46.408Z,11.17
2018-05-14T16:09:15.527Z,16.13
2018-05-14T16:11:45.117Z,14.10
2018-05-14T16:14:13.331Z,12.37
2018-05-14T16:16:41.706Z,15.87
2018-05-14T16:19:09.459Z,11.27
2018-05-14T16:21:38.142Z,15.87
2018-05-14T16:24:06.080Z,16.03
2018-05-14T16:26:34.041Z,15.93
2018-05-14T16:29:02.584Z,7.97
2018-05-14T16:31:30.661Z,8.80
2018-05-14T16:33:58.807Z,6.30
2018-05-14T16:36:27.185Z,8.07
2018-05-14T16:38:57.084Z,7.10
2018-05-14T16:41:25.591Z,5.57
2018-05-14T16:43:55.059Z,3.80
2018-05-14T16:46:22.918Z,10.47
2018-05-14T16:48:51.591Z,5.97
2018-05-14T16:51:19.236Z,6.10
2018-05-14T16:53:48.028Z,6.00
2018-05-14T16:56:15.702Z,6.03
2018-05-14T16:58:44.316Z,8.07
2018-05-14T17:01:14.303Z,6.17
2018-05-14T17:03:42.327Z,7.63
2018-05-14T17:06:11.300Z,7.53
2018-05-14T17:08:39.034Z,5.07
2018-05-14T17:11:07.447Z,4.43
2018-05-14T17:13:35.392Z,6.43
2018-05-14T17:16:03.115Z,6.87
2018-05-14T17:18:31.349Z,4.83
2018-05-14T17:21:00.843Z,6.40
2018-05-14T17:23:28.846Z,5.73
2018-05-14T17:25:58.758Z,3.73
2018-05-14T17:28:28.031Z,6.30
2018-05-14T17:30:55.859Z,6.80
2018-05-14T17:33:24.718Z,8.30
2018-05-14T17:35:52.409Z,4.20
2018-05-14T17:38:20.074Z,5.70
2018-05-14T17:40:48.576Z,5.13
2018-05-14T17:43:16.506Z,6.53
2018-05-14T17:45:44.107Z,5.53
2018-05-14T17:48:12.676Z,6.90
2018-05-14T17:50:41.151Z,5.10
2018-05-14T17:53:08.846Z,5.67
2018-05-14T17:55:39.446Z,3.83
2018-05-14T17:58:08.838Z,8.03
2018-05-14T18:00:36.701Z,6.53
2018-05-14T18:03:05.226Z,10.90
2018-05-14T18:05:36.899Z,6.97
2018-05-14T18:08:06.671Z,6.50
2018-05-14T18:10:34.558Z,4.90
2018-05-14T18:13:02.972Z,8.57
2018-05-14T18:15:34.603Z,6.50
2018-05-14T18:18:03.272Z,7.10
2018-05-14T18:20:31.235Z,6.90
2018-05-14T18:23:02.731Z,4.00
2018-05-14T18:25:36.768Z,5.40
2018-05-14T18:28:09.457Z,4.27
2018-05-14T18:30:40.830Z,5.97
2018-05-14T18:33:14.077Z,5.60
2018-05-14T18:35:44.980Z,7.93
2018-05-14T18:38:17.246Z,6.00
2018-05-14T18:40:45.748Z,4.37
2018-05-14T18:43:13.616Z,8.10
2018-05-14T18:45:41.859Z,9.80
2018-05-14T18:48:10.356Z,6.20
2018-05-14T18:50:38.942Z,6.77
2018-05-14T18:53:08.064Z,7.30
2018-05-14T18:55:37.073Z,6.27
2018-05-14T18:58:06.165Z,11.20
2018-05-14T19:00:34.126Z,5.47
2018-05-14T19:03:02.156Z,6.53
2018-05-14T19:05:30.055Z,9.47
2018-05-14T19:08:00.195Z,11.03
2018-05-14T19:10:34.233Z,5.50
2018-05-14T19:13:04.120Z,6.80
2018-05-14T19:15:38.160Z,5.83
2018-05-14T19:18:07.468Z,3.80
2018-05-14T19:20:35.522Z,5.37
2018-05-14T19:23:11.118Z,6.37
2018-05-14T19:25:39.734Z,7.13
2018-05-14T19:28:14.337Z,11.63
2018-05-14T19:30:42.468Z,8.13
2018-05-14T19:33:10.633Z,5.70
2018-05-14T19:35:44.704Z,3.87
2018-05-14T19:38:12.937Z,6.73
2018-05-14T19:40:47.216Z,10.30
2018-05-14T19:43:15.338Z,7.90
2018-05-14T19:45:43.615Z,6.50
2018-05-14T19:48:13.666Z,5.00
2018-05-14T19:50:42.253Z,6.97
2018-05-14T19:53:10.240Z,5.60
2018-05-14T19:55:38.390Z,6.30
2018-05-14T19:58:06.126Z,8.47
2018-05-14T20:00:33.801Z,7.80
2018-05-14T20:03:01.530Z,4.97
2018-05-14T20:05:30.067Z,7.20
2018-05-14T20:07:57.755Z,8.93
2018-05-14T20:10:26.463Z,5.23
2018-05-14T20:12:54.855Z,7.10
2018-05-14T20:17:57.386Z,7.80
2018-05-14T20:20:25.023Z,4.77
2018-05-14T20:22:52.816Z,6.27
2018-05-14T20:25:20.507Z,6.63
2018-05-14T20:27:49.034Z,7.30
2018-05-14T20:30:16.693Z,5.63
2018-05-14T20:32:44.375Z,6.10
2018-05-14T20:35:20.675Z,5.90
2018-05-14T20:37:49.392Z,5.87
2018-05-14T20:40:17.256Z,6.67
2018-05-14T20:42:45.862Z,8.70
2018-05-14T20:45:14.857Z,7.47
2018-05-14T20:47:42.788Z,7.67
2018-05-14T20:50:10.419Z,4.80
2018-05-14T20:52:38.265Z,5.30
2018-05-14T20:55:06.217Z,5.97
2018-05-14T20:57:33.903Z,4.90
2018-05-14T21:00:02.021Z,7.50
2018-05-14T21:02:31.623Z,12.70
2018-05-14T21:05:00.012Z,8.80
2018-05-14T21:07:28.476Z,6.70
2018-05-14T21:09:56.487Z,6.60
2018-05-14T21:12:25.512Z,10.27
2018-05-14T21:14:54.028Z,6.73
2018-05-14T21:17:22.677Z,5.73
2018-05-14T21:19:51.216Z,10.00
2018-05-14T21:22:18.871Z,8.20
2018-05-14T21:24:47.434Z,7.70
2018-05-14T21:27:15.518Z,7.93
2018-05-14T21:29:44.175Z,7.03
2018-05-14T21:32:12.879Z,6.07
2018-05-14T21:34:40.598Z,8.57
2018-05-14T21:37:08.335Z,5.80
2018-05-14T21:39:36.035Z,9.37
2018-05-14T21:42:03.599Z,5.97
2018-05-14T21:44:31.350Z,5.40
2018-05-14T21:47:02.653Z,11.80
2018-05-14T21:49:30.549Z,6.33
2018-05-14T21:52:00.209Z,8.70
2018-05-14T21:54:27.806Z,6.50
2018-05-14T21:56:56.578Z,11.53
2018-05-14T21:59:25.120Z,6.27
2018-05-14T22:01:52.745Z,5.70
2018-05-14T22:04:21.192Z,10.30
2018-05-14T22:06:55.988Z,5.13
2018-05-14T22:09:24.430Z,6.90
2018-05-14T22:11:52.064Z,8.60
2018-05-14T22:14:20.159Z,8.90
2018-05-14T22:16:48.775Z,7.00
2018-05-14T22:19:16.510Z,10.07
2018-05-14T22:21:44.857Z,5.30
2018-05-14T22:24:12.503Z,11.00
2018-05-14T22:26:40.579Z,16.90
2018-05-14T22:29:09.566Z,14.70
2018-05-14T22:31:37.226Z,7.67
2018-05-14T22:34:05.223Z,8.50
2018-05-14T22:36:33.570Z,9.23
2018-05-14T22:39:03.255Z,5.37
2018-05-14T22:41:30.860Z,9.17
2018-05-14T22:43:58.859Z,10.30
2018-05-14T22:46:26.462Z,8.50
2018-05-14T22:48:54.192Z,12.93
2018-05-14T22:51:21.859Z,7.97
2018-05-14T22:53:49.470Z,8.47
2018-05-14T22:56:22.654Z,9.17
2018-05-14T22:58:50.275Z,8.13
2018-05-14T23:01:18.111Z,8.77
2018-05-14T23:03:46.480Z,7.27
2018-05-14T23:06:14.995Z,7.87
2018-05-14T23:08:42.688Z,10.07
2018-05-14T23:11:10.506Z,8.23
2018-05-14T23:13:38.900Z,7.80
2018-05-14T23:16:07.824Z,8.30
2018-05-14T23:18:35.501Z,7.47
2018-05-14T23:21:03.484Z,7.93
2018-05-14T23:23:31.193Z,9.83
2018-05-14T23:25:58.830Z,5.60
2018-05-14T23:28:28.157Z,9.20
2018-05-14T23:30:56.020Z,6.40
2018-05-14T23:33:23.623Z,8.30
2018-05-14T23:35:52.333Z,10.60
2018-05-14T23:38:21.923Z,9.73
2018-05-14T23:40:49.527Z,10.70
2018-05-14T23:43:17.191Z,8.13
2018-05-14T23:45:44.923Z,7.27
2018-05-14T23:48:12.568Z,9.20
2018-05-14T23:50:40.214Z,7.60
2018-05-14T23:53:07.870Z,7.80
2018-05-14T23:55:35.595Z,10.20
2018-05-14T23:58:04.080Z,10.17
